Gleeson, Arizona
Current Conditions -  °F | °C
As of 10:56 PM on Thursday 27 Nov 2014 (Local Time) from KDUG Reporting Station
Clear Clear  
Wind Chill: 35°   Ceiling: Unl
Heat Index: 41°   Visibility: 10mi
Dew Point: 19°   Wind: 10mph
Humidity: 41%   Direction: 340°NNW
Pressure: 30.26"   Gusts: NA
Location:  31.7341°N, 109.494°W
Report Text: KDUG 280556Z AUTO 34009KT 10SM CLR 05/M07 A3026 RMK AO2 SLP211 T00501072 10200 20050 51002
Loading
Personal Weather Stations






























Interactive Weather Map New forecast layout! Learn more

10-Day Weather Forecast

Advertisements
Track Severe Weather on mobile